Topaz Lodge, Nevada
Current Conditions -  °F | °C
As of 11:35 PM on Friday 24 Oct 2014 (Local Time) from KMEV Reporting Station
Clear Clear  
Wind Chill: 59°   Ceiling: Unl
Heat Index: 59°   Visibility: 10mi
Dew Point: 19°   Wind: 15mph
Humidity: 22%   Direction: 200°SSW
Pressure: 30.04"   Gusts: NA
Location:  38.9417°N, 119.681°W
Report Text: KMEV 250635Z AUTO 20013KT 10SM CLR 15/M07 A3004 RMK AO2
Loading
Personal Weather Stations






























Interactive Weather Map
Tropical Storm Tracking
New forecast layout! Learn more

10-Day Weather Forecast

Advertisements
Track Severe Weather on mobile